Archival Weather

Granbury Rgnl

Granbury, Texas (KGDJ)

Report from: Monday, January 29, 2024 3:35 PM UTC
Current time: Tuesday, June 18, 2024 1:02 PM UTC

Current weather – Weather history – Daily summaries
Weather forecast

Temperature8.2°C (46.8°F)
Dew point4.1°C (39.4°F)
Winds Calm
Visibility10 mi. (16.1 km)
Clouds Sky clear
Altimeter30.35 in.Hg (1028 mB)
Relative humidity75 %
Density altitude-1,186 ft. (-362 m)
Remarks Fully automated report
Automated weather observing station with precipitation discriminator
Flight conditions Visual Meteorological Conditions
Raw dataKGDJ 291535Z AUTO 00000KT 10SM CLR 08/04 A3035 RMK AO2 T00820041
An error has occurred. This application may no longer respond until reloaded. Reload 🗙